Time;durP1;ratioP1;P1;durP2;ratioP2;P2;SDS_P1;SDS_P2;PMS_P1;PMS_P2;Temp;Humidity;BMP_temperature;BMP_pressure;BME280_temperature;BME280_humidity;BME280_pressure;Samples;Min_cycle;Max_cycle;Signal;HPM_P1;HPM_P2
2022/04/08 00:01:18;;;;;;;9.55;1.23;;;6.30;99.90;;;;;;4964782;28;20038;-89
2022/04/08 00:03:54;;;;;;;7.43;0.80;;;5.20;99.90;;;;;;5005149;23;20046;-90
2022/04/08 00:06:29;;;;;;;5.15;0.80;;;5.70;99.90;;;;;;4997394;28;20046;-87
2022/04/08 00:08:54;;;;;;;10.40;1.10;;;5.50;99.90;;;;;;4998530;28;20054;-94
2022/04/08 00:11:28;;;;;;;8.60;1.25;;;5.10;99.90;;;;;;4999544;28;20400;-87
2022/04/08 00:14:01;;;;;;;12.70;1.00;;;5.10;99.90;;;;;;4999625;28;20050;-89
2022/04/08 00:16:38;;;;;;;11.80;0.82;;;5.10;99.90;;;;;;4999664;28;20085;-92
2022/04/08 00:19:14;;;;;;;6.32;0.75;;;4.70;99.90;;;;;;5000785;28;20057;-89
2022/04/08 00:21:41;;;;;;;6.63;0.90;;;5.70;99.90;;;;;;4996883;28;20082;-91
2022/04/08 00:24:07;;;;;;;3.67;0.68;;;5.10;99.90;;;;;;4991417;28;20050;-93
2022/04/08 00:26:34;;;;;;;4.38;0.70;;;5.00;99.90;;;;;;5122486;23;20058;-94
2022/04/08 00:29:09;;;;;;;4.63;0.70;;;5.60;99.90;;;;;;4997173;28;20042;-91
2022/04/08 00:31:57;;;;;;;3.47;0.50;;;5.10;99.90;;;;;;5041126;23;20057;-88
2022/04/08 00:34:25;;;;;;;2.10;0.45;;;4.90;99.90;;;;;;5007928;28;20078;-88
2022/04/08 00:37:03;;;;;;;3.20;0.60;;;4.80;99.90;;;;;;4991248;23;20046;-90
2022/04/08 00:39:56;;;;;;;5.80;0.82;;;4.40;99.90;;;;;;4965563;29;20407;-89
2022/04/08 00:42:49;;;;;;;6.30;0.75;;;4.40;99.90;;;;;;4941008;29;20051;-90
2022/04/08 00:48:06;;;;;;;8.30;1.10;;;4.40;99.90;;;;;;5016516;23;22438;-93
2022/04/08 00:53:55;;;;;;;;;;;4.30;99.90;;;;;;4960618;28;20501;-88
2022/04/08 00:56:21;;;;;;;10.25;0.98;;;4.30;99.90;;;;;;4960767;28;19922;-92
2022/04/08 00:58:50;;;;;;;6.45;1.05;;;5.20;99.90;;;;;;4928762;28;20054;-94
2022/04/08 01:01:16;;;;;;;11.32;1.45;;;5.00;99.90;;;;;;4944204;28;20482;-90
2022/04/08 01:03:43;;;;;;;9.35;1.25;;;5.10;99.90;;;;;;4977851;28;20114;-96
2022/04/08 01:06:44;;;;;;;6.28;1.05;;;5.20;99.90;;;;;;4979750;23;20055;-93
2022/04/08 01:09:32;;;;;;;14.02;1.80;;;4.20;99.90;;;;;;4909562;29;20055;-92
2022/04/08 01:12:16;;;;;;;12.48;1.40;;;4.10;99.90;;;;;;4906942;29;20055;-93
2022/04/08 01:14:42;;;;;;;8.93;1.20;;;3.60;99.90;;;;;;4942444;23;20109;-94
2022/04/08 01:17:09;;;;;;;11.77;1.73;;;4.60;99.90;;;;;;4945670;23;20567;-91
2022/04/08 01:22:02;;;;;;;8.48;1.10;;;4.00;99.90;;;;;;5129815;23;20021;-88
2022/04/08 01:24:46;;;;;;;11.45;1.95;;;4.40;99.90;;;;;;4949668;28;20055;-89
2022/04/08 01:27:24;;;;;;;14.65;1.15;;;3.90;99.90;;;;;;4948643;28;20046;-94
2022/04/08 01:30:05;;;;;;;11.95;1.50;;;4.60;99.90;;;;;;4965148;28;20051;-94
2022/04/08 01:32:37;;;;;;;9.50;1.05;;;3.90;99.90;;;;;;5076057;23;20062;-87
2022/04/08 01:35:13;;;;;;;7.40;1.08;;;4.50;99.90;;;;;;4993740;23;20142;-90
2022/04/08 01:40:07;;;;;;;10.70;1.50;;;3.90;99.90;;;;;;5007374;23;20066;-87
2022/04/08 01:45:12;;;;;;;9.18;1.70;;;3.90;99.90;;;;;;4989389;28;20429;-90
2022/04/08 01:47:43;;;;;;;7.30;1.45;;;4.60;99.90;;;;;;5005776;28;20047;-89
2022/04/08 01:50:22;;;;;;;5.15;1.10;;;3.90;99.90;;;;;;4997927;23;20042;-86
2022/04/08 01:52:49;;;;;;;9.48;1.35;;;3.90;99.90;;;;;;4990187;28;20050;-92
2022/04/08 01:55:18;;;;;;;12.75;1.50;;;3.90;99.90;;;;;;4972036;28;20046;-88
2022/04/08 01:57:44;;;;;;;14.68;1.33;;;4.40;99.90;;;;;;4989867;28;20102;-95
2022/04/08 02:00:11;;;;;;;9.88;1.45;;;4.80;99.90;;;;;;5004700;28;20086;-93
2022/04/08 02:02:38;;;;;;;9.60;1.00;;;3.90;99.90;;;;;;4980077;28;20051;-92
2022/04/08 02:05:10;;;;;;;10.27;1.08;;;4.30;99.90;;;;;;4982677;28;20051;-89
2022/04/08 02:07:47;;;;;;;15.18;1.73;;;4.70;99.90;;;;;;5008250;23;20057;-94
2022/04/08 02:10:13;;;;;;;8.85;1.30;;;4.90;99.90;;;;;;4968013;28;20112;-86
2022/04/08 02:12:44;;;;;;;13.77;1.48;;;4.80;99.90;;;;;;5007140;23;20501;-88
2022/04/08 02:15:14;;;;;;;11.50;1.10;;;4.40;99.90;;;;;;4970231;28;20141;-90
2022/04/08 02:17:40;;;;;;;8.38;1.52;;;3.90;99.90;;;;;;4966606;28;20054;-94
2022/04/08 02:20:18;;;;;;;18.35;1.70;;;4.60;99.90;;;;;;4983834;28;20046;-89
2022/04/08 02:25:19;;;;;;;10.18;1.33;;;4.00;99.90;;;;;;5081525;23;20049;-92
2022/04/08 02:31:17;;;;;;;8.52;1.30;;;3.90;99.90;;;;;;4957998;29;20099;-94
2022/04/08 02:36:18;;;;;;;13.90;1.45;;;3.90;99.90;;;;;;5154879;23;20059;-89
2022/04/08 02:38:44;;;;;;;11.05;1.42;;;3.80;99.90;;;;;;4928979;29;20079;-89
2022/04/08 02:43:54;;;;;;;8.98;1.40;;;3.80;99.90;;;;;;4998158;28;20409;-92
2022/04/08 02:46:26;;;;;;;16.08;1.77;;;3.80;99.90;;;;;;4972324;28;20394;-84
2022/04/08 02:51:27;;;;;;;13.05;1.63;;;3.80;99.90;;;;;;4976725;28;20042;-89
2022/04/08 02:53:56;;;;;;;6.70;1.08;;;4.10;99.90;;;;;;4949453;28;20047;-89
2022/04/08 02:56:22;;;;;;;11.90;1.27;;;3.70;99.90;;;;;;4961264;28;20051;-89
2022/04/08 02:58:51;;;;;;;9.82;2.08;;;4.20;99.90;;;;;;4927580;29;20062;-93
2022/04/08 03:01:18;;;;;;;10.48;1.25;;;4.00;99.90;;;;;;4954031;28;20054;-87
2022/04/08 03:03:51;;;;;;;14.68;2.13;;;4.30;99.90;;;;;;5001018;28;20042;-84
2022/04/08 03:06:17;;;;;;;16.38;1.40;;;4.50;99.90;;;;;;4983558;28;20043;-88
2022/04/08 03:08:46;;;;;;;11.77;1.35;;;4.10;99.90;;;;;;4998813;28;20061;-84
2022/04/08 03:11:24;;;;;;;13.48;2.20;;;2.90;99.90;;;;;;4982889;28;20050;-88
2022/04/08 03:13:50;;;;;;;13.02;1.67;;;3.50;99.90;;;;;;4990077;28;20564;-91
2022/04/08 03:16:16;;;;;;;18.65;1.92;;;4.60;99.90;;;;;;4981435;28;20039;-94
2022/04/08 03:18:50;;;;;;;10.68;1.40;;;3.50;99.90;;;;;;4951904;28;20058;-90
2022/04/08 03:21:22;;;;;;;11.10;1.77;;;4.40;99.90;;;;;;4964069;28;20058;-86
2022/04/08 03:23:54;;;;;;;14.80;2.30;;;3.50;99.90;;;;;;4961729;28;20058;-90
2022/04/08 03:26:26;;;;;;;20.50;2.72;;;3.40;99.90;;;;;;4951953;29;20051;-84
2022/04/08 03:28:51;;;;;;;11.98;1.70;;;3.80;99.90;;;;;;4961088;29;20103;-94
2022/04/08 03:31:17;;;;;;;16.88;2.15;;;4.00;99.90;;;;;;4943943;29;20075;-88
2022/04/08 03:33:55;;;;;;;16.92;1.60;;;3.40;99.90;;;;;;4962523;28;20043;-88
2022/04/08 03:36:20;;;;;;;13.90;1.80;;;3.40;99.90;;;;;;4945382;28;20042;-88
2022/04/08 03:38:46;;;;;;;18.30;2.38;;;3.30;99.90;;;;;;4962571;28;20130;-91
2022/04/08 03:41:12;;;;;;;15.63;2.17;;;3.30;99.90;;;;;;4981726;28;20034;-95
2022/04/08 03:43:51;;;;;;;10.40;1.45;;;4.30;99.90;;;;;;4960237;28;20133;-87
2022/04/08 03:46:23;;;;;;;19.02;2.10;;;3.30;99.90;;;;;;4956700;28;20050;-87
2022/04/08 03:48:49;;;;;;;16.75;1.90;;;3.70;99.90;;;;;;4959305;28;20494;-93
2022/04/08 03:51:27;;;;;;;12.40;1.65;;;3.40;99.90;;;;;;4975570;28;20051;-91
2022/04/08 03:53:54;;;;;;;4.40;0.90;;;3.40;99.90;;;;;;4977405;28;20086;-87
2022/04/08 03:56:20;;;;;;;3.97;1.00;;;4.20;99.90;;;;;;4977013;28;20057;-90
2022/04/08 03:58:46;;;;;;;6.18;0.98;;;4.10;99.90;;;;;;4976500;28;20054;-87
2022/04/08 04:01:32;;;;;;;8.88;1.17;;;4.10;99.90;;;;;;4976823;28;20046;-90
2022/04/08 04:04:01;;;;;;;3.67;1.08;;;3.50;99.90;;;;;;4979325;28;20089;-89
2022/04/08 04:06:30;;;;;;;2.58;0.77;;;3.30;99.90;;;;;;4965264;28;20133;-90
2022/04/08 04:08:56;;;;;;;5.95;0.80;;;4.10;99.90;;;;;;4968661;28;20063;-90
2022/04/08 04:11:21;;;;;;;3.78;0.60;;;3.90;99.90;;;;;;4961380;28;20420;-90
2022/04/08 04:13:53;;;;;;;2.88;0.50;;;3.90;99.90;;;;;;4960299;28;20059;-89
2022/04/08 04:16:28;;;;;;;3.20;0.70;;;3.60;99.90;;;;;;4975219;28;20057;-86
2022/04/08 04:18:59;;;;;;;5.63;0.77;;;3.90;99.90;;;;;;4973887;28;20454;-91
2022/04/08 04:21:37;;;;;;;5.72;0.75;;;4.00;99.90;;;;;;4965610;28;20571;-87
2022/04/08 04:24:08;;;;;;;3.08;0.70;;;4.10;99.90;;;;;;4975728;28;20510;-90
2022/04/08 04:26:37;;;;;;;3.83;0.73;;;4.20;99.90;;;;;;4961663;28;20501;-91
2022/04/08 04:29:08;;;;;;;4.90;0.60;;;3.10;99.90;;;;;;4944122;28;20101;-86
2022/04/08 04:31:34;;;;;;;2.78;0.70;;;3.70;99.90;;;;;;4960968;28;20053;-89
2022/04/08 04:34:14;;;;;;;7.03;1.02;;;3.10;99.90;;;;;;4960026;28;20063;-91
2022/04/08 04:36:40;;;;;;;2.10;0.90;;;3.90;99.90;;;;;;4959799;28;20450;-93
2022/04/08 04:39:06;;;;;;;4.55;0.80;;;3.10;99.90;;;;;;4961457;28;20076;-87
2022/04/08 04:41:38;;;;;;;2.70;0.80;;;3.70;99.90;;;;;;4977180;28;20136;-91
2022/04/08 04:44:19;;;;;;;5.70;1.00;;;3.70;99.90;;;;;;4994022;28;20039;-88
2022/04/08 04:46:50;;;;;;;5.00;1.10;;;3.20;99.90;;;;;;4961195;28;20088;-86
2022/04/08 04:49:19;;;;;;;6.50;0.90;;;3.40;99.90;;;;;;4994849;28;20049;-92
2022/04/08 04:51:45;;;;;;;5.40;1.30;;;3.80;99.90;;;;;;4975285;28;20058;-91
2022/04/08 04:54:10;;;;;;;5.10;0.93;;;4.20;99.90;;;;;;4975592;28;20050;-94
2022/04/08 04:56:39;;;;;;;3.25;1.00;;;3.90;99.90;;;;;;4975993;28;20047;-87
2022/04/08 04:59:05;;;;;;;7.15;1.10;;;3.50;99.90;;;;;;4958063;28;20078;-85
2022/04/08 05:01:54;;;;;;;6.10;1.02;;;3.40;99.90;;;;;;4956912;28;20042;-92
2022/04/08 05:04:26;;;;;;;5.80;1.20;;;4.30;99.90;;;;;;4956537;28;20051;-86
2022/04/08 05:07:07;;;;;;;;;;;3.20;99.90;;;;;;4944296;28;20053;-92
2022/04/08 05:09:45;;;;;;;5.68;1.20;;;3.40;99.90;;;;;;4974413;28;20377;-89
2022/04/08 05:12:11;;;;;;;4.57;1.15;;;4.10;99.90;;;;;;4957970;28;20486;-85
2022/04/08 05:14:37;;;;;;;3.78;0.80;;;4.50;99.90;;;;;;4973533;28;20042;-85
2022/04/08 05:17:16;;;;;;;3.85;1.10;;;3.60;99.90;;;;;;4936832;29;20066;-88
2022/04/08 05:19:53;;;;;;;5.28;1.45;;;4.40;99.90;;;;;;4954792;29;20055;-91
2022/04/08 05:22:38;;;;;;;6.75;1.10;;;3.90;99.90;;;;;;4955046;29;20467;-88
2022/04/08 05:25:08;;;;;;;7.90;1.00;;;4.40;99.90;;;;;;4969185;28;20131;-87
2022/04/08 05:30:17;;;;;;;2.88;1.00;;;3.50;99.90;;;;;;4976724;23;20089;-88
2022/04/08 05:32:44;;;;;;;2.50;0.90;;;3.50;99.90;;;;;;4937109;29;20051;-85
2022/04/08 05:35:27;;;;;;;4.53;1.10;;;3.50;99.90;;;;;;4937020;29;20055;-85
2022/04/08 05:38:08;;;;;;;3.97;0.90;;;4.40;99.90;;;;;;4954277;29;20177;-88
2022/04/08 05:40:43;;;;;;;3.75;1.15;;;3.50;99.90;;;;;;4936511;29;20059;-87
2022/04/08 05:43:18;;;;;;;4.32;0.88;;;3.10;99.90;;;;;;4936966;29;20151;-87
2022/04/08 05:45:46;;;;;;;5.38;0.88;;;3.90;99.90;;;;;;4967674;28;20050;-84
2022/04/08 05:48:17;;;;;;;4.50;1.05;;;3.50;99.90;;;;;;4961626;28;20043;-90
2022/04/08 05:50:49;;;;;;;4.20;1.15;;;3.90;99.90;;;;;;4954222;29;20047;-88
2022/04/08 05:53:22;;;;;;;6.75;1.08;;;3.40;99.90;;;;;;4954162;29;20057;-89
2022/04/08 05:56:05;;;;;;;8.60;1.42;;;4.10;99.90;;;;;;4937697;29;20044;-93
2022/04/08 05:59:00;;;;;;;4.05;0.88;;;3.50;99.90;;;;;;4880933;29;20159;-91
2022/04/08 06:01:26;;;;;;;6.13;0.90;;;3.30;99.90;;;;;;4892667;29;20056;-92
2022/04/08 06:04:04;;;;;;;7.20;1.08;;;3.30;99.90;;;;;;4897969;29;20055;-88
2022/04/08 06:06:44;;;;;;;3.72;1.17;;;3.50;99.90;;;;;;4898092;29;20562;-89
2022/04/08 06:09:10;;;;;;;8.60;1.42;;;4.10;99.90;;;;;;4882698;29;20056;-87
2022/04/08 06:11:37;;;;;;;5.40;1.30;;;3.20;99.90;;;;;;4897828;29;20107;-86
2022/04/08 06:14:02;;;;;;;6.97;1.42;;;4.60;99.90;;;;;;4913295;29;20055;-89
2022/04/08 06:16:49;;;;;;;10.32;1.80;;;3.60;99.90;;;;;;4912008;29;20056;-87
2022/04/08 06:19:20;;;;;;;5.32;1.40;;;3.70;99.90;;;;;;4897095;29;20056;-86
2022/04/08 06:21:48;;;;;;;5.82;1.17;;;4.80;99.90;;;;;;4897649;29;20044;-84
2022/04/08 06:24:14;;;;;;;6.07;1.35;;;3.80;99.90;;;;;;4897621;29;20064;-84
2022/04/08 06:26:43;;;;;;;6.45;1.00;;;3.80;99.90;;;;;;4913668;29;20108;-88
2022/04/08 06:29:14;;;;;;;5.18;1.40;;;3.80;99.90;;;;;;4896411;29;20048;-85
2022/04/08 06:31:40;;;;;;;7.70;2.00;;;3.90;99.90;;;;;;4908719;29;20060;-85
2022/04/08 06:34:08;;;;;;;8.20;1.85;;;5.00;99.90;;;;;;4915990;29;20426;-83
2022/04/08 06:36:34;;;;;;;5.03;1.33;;;4.10;99.90;;;;;;4943716;28;20051;-86
2022/04/08 06:39:00;;;;;;;3.47;1.10;;;4.30;99.90;;;;;;4958106;28;20054;-86
2022/04/08 06:41:28;;;;;;;7.88;1.20;;;4.40;99.90;;;;;;4958320;28;20375;-84
2022/04/08 06:44:03;;;;;;;5.03;1.30;;;4.20;99.90;;;;;;4958139;28;20050;-87
2022/04/08 06:46:29;;;;;;;;;;;4.30;99.90;;;;;;4942133;28;20126;-87
2022/04/08 06:49:04;;;;;;;8.95;1.60;;;5.10;99.90;;;;;;4975447;28;19917;-86
2022/04/08 06:51:32;;;;;;;5.35;1.25;;;5.60;99.90;;;;;;4975095;28;20049;-87
2022/04/08 06:53:58;;;;;;;2.50;1.13;;;5.40;99.90;;;;;;4941316;28;20486;-89
2022/04/08 06:56:23;;;;;;;4.45;1.10;;;4.60;99.90;;;;;;4941478;28;20127;-84
2022/04/08 06:58:54;;;;;;;3.53;1.27;;;4.90;99.90;;;;;;4974656;28;20054;-87
2022/04/08 07:01:41;;;;;;;2.95;1.27;;;5.20;99.90;;;;;;4975755;28;20047;-86
2022/04/08 07:04:06;;;;;;;4.95;1.40;;;5.60;99.90;;;;;;4959190;28;20110;-91
2022/04/08 07:06:34;;;;;;;8.23;1.70;;;4.80;99.90;;;;;;4943875;28;20046;-83
2022/04/08 07:09:00;;;;;;;8.05;1.42;;;4.80;99.90;;;;;;4975349;28;20062;-91
2022/04/08 07:11:26;;;;;;;5.22;1.30;;;5.10;99.90;;;;;;4976018;28;20505;-85
2022/04/08 07:13:51;;;;;;;12.23;1.88;;;5.10;99.90;;;;;;4957267;28;20137;-88
2022/04/08 07:16:32;;;;;;;7.47;1.08;;;5.10;99.90;;;;;;4975008;28;20129;-85
2022/04/08 07:18:58;;;;;;;7.70;1.48;;;5.80;99.90;;;;;;4974587;28;20046;-85
2022/04/08 07:21:30;;;;;;;4.65;1.27;;;5.90;99.90;;;;;;4957243;28;20125;-86
2022/04/08 07:24:08;;;;;;;8.45;1.92;;;5.70;99.90;;;;;;4974131;28;20043;-85
2022/04/08 07:26:43;;;;;;;5.18;0.80;;;5.20;99.90;;;;;;4958906;28;20061;-92
2022/04/08 07:29:09;;;;;;;4.88;1.13;;;5.20;99.90;;;;;;4947743;29;20059;-94
2022/04/08 07:31:36;;;;;;;6.53;1.35;;;6.10;99.90;;;;;;4939757;29;20062;-88
2022/04/08 07:34:07;;;;;;;7.30;1.67;;;6.00;99.90;;;;;;4912451;29;20059;-85
2022/04/08 07:36:33;;;;;;;7.25;1.38;;;6.00;99.90;;;;;;4918796;29;20126;-84
2022/04/08 07:38:58;;;;;;;5.32;1.33;;;5.70;99.90;;;;;;4935315;29;20050;-83
2022/04/08 07:41:42;;;;;;;3.83;1.17;;;5.80;99.90;;;;;;4951817;28;20059;-90
2022/04/08 07:44:20;;;;;;;5.72;1.30;;;6.60;99.90;;;;;;4953518;29;20127;-85
2022/04/08 07:46:45;;;;;;;13.55;2.75;;;5.60;99.90;;;;;;4956310;29;20082;-82
2022/04/08 07:49:20;;;;;;;9.65;1.58;;;6.30;99.90;;;;;;4938735;29;20083;-84
2022/04/08 07:51:52;;;;;;;;;;;6.50;99.90;;;;;;4935607;29;20052;-86
2022/04/08 07:54:21;;;;;;;5.20;1.75;;;6.00;99.90;;;;;;4918198;29;20370;-86
2022/04/08 07:56:47;;;;;;;12.57;2.42;;;6.00;99.90;;;;;;4918666;29;20054;-86
2022/04/08 07:59:12;;;;;;;11.45;2.00;;;6.00;99.90;;;;;;4918229;29;20048;-86
2022/04/08 08:01:38;;;;;;;9.52;1.48;;;6.10;99.90;;;;;;4914657;29;20395;-94
2022/04/08 08:04:13;;;;;;;10.10;1.88;;;7.10;99.90;;;;;;4936659;29;20043;-90
2022/04/08 08:06:38;;;;;;;7.85;1.48;;;6.40;99.90;;;;;;4953696;29;20054;-79
2022/04/08 08:09:04;;;;;;;7.40;1.60;;;7.30;99.90;;;;;;4953871;29;20055;-81
2022/04/08 08:11:44;;;;;;;9.82;1.40;;;7.50;99.90;;;;;;4953710;29;20043;-84
2022/04/08 08:14:29;;;;;;;12.70;1.38;;;6.80;99.90;;;;;;4936962;29;20400;-83
2022/04/08 08:17:02;;;;;;;8.30;1.40;;;7.30;99.90;;;;;;4945687;29;20051;-83
2022/04/08 08:19:31;;;;;;;12.38;1.55;;;7.00;99.90;;;;;;4929827;29;20049;-85
2022/04/08 08:22:06;;;;;;;;;;;;;;;;;;;;;
2022/04/08 08:24:38;;;;;;;7.22;1.25;;;7.90;99.90;;;;;;4938747;29;20054;-89
2022/04/08 08:27:04;;;;;;;8.02;1.23;;;8.10;99.90;;;;;;4921927;29;20050;-86
2022/04/08 08:29:30;;;;;;;6.25;0.88;;;8.40;99.90;;;;;;4969194;28;20059;-86
2022/04/08 08:32:06;;;;;;;8.48;1.45;;;8.40;99.90;;;;;;4985991;23;20054;-84
2022/04/08 08:34:32;;;;;;;8.38;1.80;;;7.50;99.90;;;;;;4995689;28;20054;-87
2022/04/08 08:36:59;;;;;;;6.85;1.15;;;8.00;99.90;;;;;;4995768;28;20048;-86
2022/04/08 08:39:37;;;;;;;7.00;1.10;;;8.30;99.90;;;;;;4987266;23;20068;-89
2022/04/08 08:42:05;;;;;;;10.43;1.00;;;8.50;99.90;;;;;;4954275;28;20066;-86
2022/04/08 08:44:33;;;;;;;9.50;1.00;;;8.30;99.90;;;;;;4940501;28;20055;-87
2022/04/08 08:47:00;;;;;;;6.55;1.27;;;8.90;99.90;;;;;;4973672;28;20441;-90
2022/04/08 08:49:42;;;;;;;9.07;1.23;;;8.60;99.90;;;;;;4954181;28;20054;-85
2022/04/08 08:52:14;;;;;;;4.20;0.65;;;8.70;99.90;;;;;;4958282;28;20406;-93
2022/04/08 08:54:40;;;;;;;4.20;0.90;;;8.10;99.90;;;;;;4973671;28;20486;-87
2022/04/08 08:57:17;;;;;;;7.20;1.55;;;8.00;99.90;;;;;;4956464;28;20125;-89
2022/04/08 09:00:02;;;;;;;5.95;1.23;;;8.00;99.90;;;;;;4940577;28;20556;-87
2022/04/08 09:02:28;;;;;;;5.88;0.77;;;7.50;99.90;;;;;;4940146;28;20050;-89
2022/04/08 09:04:55;;;;;;;5.50;1.13;;;7.80;99.90;;;;;;4973818;28;20130;-87
2022/04/08 09:07:38;;;;;;;4.82;0.88;;;7.90;99.90;;;;;;4956349;28;20053;-85
2022/04/08 09:10:13;;;;;;;4.75;0.95;;;8.80;99.90;;;;;;4955995;28;20047;-84
2022/04/08 09:12:53;;;;;;;5.85;0.90;;;8.40;99.90;;;;;;4955578;28;20059;-87
2022/04/08 09:15:19;;;;;;;8.82;1.10;;;8.30;99.90;;;;;;4972902;28;20532;-87
2022/04/08 09:17:53;;;;;;;7.85;1.10;;;8.30;99.90;;;;;;4972952;28;20129;-88
2022/04/08 09:20:19;;;;;;;5.25;0.80;;;7.90;99.90;;;;;;4974155;28;20050;-86
2022/04/08 09:22:57;;;;;;;9.93;1.55;;;8.20;99.90;;;;;;4973816;28;20122;-88
2022/04/08 09:25:39;;;;;;;4.72;0.90;;;8.50;99.90;;;;;;4973835;28;20150;-88
2022/04/08 09:28:12;;;;;;;7.13;1.00;;;9.30;99.90;;;;;;4973967;28;20042;-90
2022/04/08 09:30:55;;;;;;;4.15;1.20;;;9.60;99.90;;;;;;4973734;28;20401;-85
2022/04/08 09:33:33;;;;;;;4.75;0.70;;;9.10;99.90;;;;;;4935448;29;20055;-90
2022/04/08 09:36:04;;;;;;;12.25;1.33;;;9.70;99.90;;;;;;4951816;29;20059;-86
2022/04/08 09:38:49;;;;;;;7.35;1.75;;;9.30;99.90;;;;;;4935255;29;20070;-91
2022/04/08 09:42:03;;;;;;;10.30;1.00;;;10.00;99.90;;;;;;4933477;29;20615;-87
2022/04/08 09:44:35;;;;;;;10.20;1.15;;;9.90;99.90;;;;;;4935664;29;20051;-85
2022/04/08 09:47:04;;;;;;;7.63;1.23;;;10.20;99.90;;;;;;4952127;29;20058;-84
2022/04/08 09:49:41;;;;;;;13.63;1.50;;;10.00;99.90;;;;;;4950754;29;20086;-84
2022/04/08 09:52:08;;;;;;;7.20;0.90;;;10.20;99.90;;;;;;4950681;29;20123;-86
2022/04/08 09:54:49;;;;;;;5.43;1.00;;;10.30;99.90;;;;;;4918990;29;20066;-88
2022/04/08 09:57:17;;;;;;;5.82;1.10;;;9.70;99.90;;;;;;4934874;29;20062;-87
2022/04/08 09:59:58;;;;;;;4.25;0.80;;;10.00;99.90;;;;;;4934253;29;20429;-88
2022/04/08 10:02:33;;;;;;;7.63;1.20;;;9.30;99.90;;;;;;4934279;29;20044;-84
2022/04/08 10:05:09;;;;;;;;;;;9.40;99.90;;;;;;4958771;28;20063;-94
2022/04/08 10:07:39;;;;;;;6.32;0.77;;;9.70;99.90;;;;;;4974144;28;20292;-92
2022/04/08 10:10:08;;;;;;;6.45;1.20;;;10.20;99.90;;;;;;4942386;29;20126;-87
2022/04/08 10:13:11;;;;;;;6.38;0.93;;;10.00;99.90;;;;;;4941035;29;20061;-85
2022/04/08 10:16:02;;;;;;;3.95;0.70;;;10.20;99.90;;;;;;4938837;29;20051;-88
2022/04/08 10:18:43;;;;;;;6.70;1.50;;;10.20;99.90;;;;;;4956431;29;20048;-85
2022/04/08 10:21:13;;;;;;;6.30;0.98;;;11.00;99.90;;;;;;4939391;29;20131;-89
2022/04/08 10:23:55;;;;;;;7.55;0.70;;;10.50;99.90;;;;;;4938768;29;20047;-85
2022/04/08 10:27:04;;;;;;;11.57;1.25;;;10.40;99.90;;;;;;4970939;28;20086;-84
2022/04/08 10:29:34;;;;;;;4.70;0.90;;;10.60;99.90;;;;;;4939268;29;20506;-84
2022/04/08 10:32:02;;;;;;;7.57;0.80;;;10.80;99.90;;;;;;4955390;29;20526;-87
2022/04/08 10:37:16;;;;;;;6.05;1.10;;;10.20;99.90;;;;;;5027546;23;20100;-86
2022/04/08 10:39:42;;;;;;;3.58;0.65;;;10.60;99.90;;;;;;4992700;28;20042;-83
2022/04/08 10:42:20;;;;;;;5.68;0.73;;;10.80;99.90;;;;;;4977808;28;20049;-85
2022/04/08 10:44:46;;;;;;;2.92;0.70;;;10.20;99.90;;;;;;4993447;28;20096;-83
2022/04/08 10:47:17;;;;;;;6.30;0.80;;;10.90;99.90;;;;;;4993831;28;20081;-84
2022/04/08 10:49:56;;;;;;;7.50;1.00;;;10.20;99.90;;;;;;5007005;28;20046;-89
2022/04/08 10:52:38;;;;;;;5.40;1.33;;;10.20;99.90;;;;;;5007744;28;20444;-83
2022/04/08 10:55:12;;;;;;;6.60;1.15;;;10.90;99.90;;;;;;5029122;28;20084;-84
2022/04/08 10:57:39;;;;;;;4.70;0.95;;;10.80;99.90;;;;;;5012457;28;20054;-87
2022/04/08 11:00:17;;;;;;;4.47;1.05;;;10.10;99.90;;;;;;5001168;28;20116;-86
2022/04/08 11:02:43;;;;;;;8.95;0.90;;;9.90;99.90;;;;;;4977174;28;20082;-86
2022/04/08 11:05:13;;;;;;;3.70;0.68;;;9.70;99.90;;;;;;4979261;28;20056;-90
2022/04/08 11:07:48;;;;;;;5.32;0.80;;;9.70;99.90;;;;;;4994483;28;20081;-85
2022/04/08 11:10:24;;;;;;;5.82;0.82;;;9.00;99.90;;;;;;4979862;28;20050;-87
2022/04/08 11:13:02;;;;;;;2.20;0.60;;;8.60;99.90;;;;;;4977910;28;20047;-88
2022/04/08 11:15:31;;;;;;;2.40;0.60;;;8.30;99.90;;;;;;5007518;28;20042;-86
2022/04/08 11:18:00;;;;;;;3.53;0.50;;;8.10;99.90;;;;;;4977982;28;20053;-85
2022/04/08 11:20:48;;;;;;;3.42;0.60;;;8.40;99.90;;;;;;5008328;28;20555;-85
2022/04/08 11:23:36;;;;;;;3.50;0.88;;;7.70;99.90;;;;;;4981044;28;20092;-82
2022/04/08 11:26:11;;;;;;;4.80;0.65;;;7.70;99.90;;;;;;4967333;28;20082;-86
2022/04/08 11:28:40;;;;;;;5.03;1.05;;;8.10;99.90;;;;;;4977523;28;20057;-84
2022/04/08 11:31:07;;;;;;;5.25;0.70;;;7.80;99.90;;;;;;4994712;28;20082;-85
2022/04/08 11:33:35;;;;;;;5.18;1.20;;;8.70;99.90;;;;;;4995934;28;20460;-88
2022/04/08 11:36:14;;;;;;;6.65;0.80;;;9.00;99.90;;;;;;5003722;28;20061;-93
2022/04/08 11:38:43;;;;;;;7.97;1.05;;;8.30;99.90;;;;;;5011059;28;20493;-84
2022/04/08 11:41:28;;;;;;;6.90;1.52;;;8.60;99.90;;;;;;4993495;28;20481;-84
2022/04/08 11:43:54;;;;;;;11.13;1.38;;;9.10;99.90;;;;;;4991838;28;20065;-85
2022/04/08 11:46:20;;;;;;;8.35;1.45;;;9.10;99.90;;;;;;4995146;28;20049;-83
2022/04/08 11:48:46;;;;;;;6.10;1.13;;;8.50;99.90;;;;;;4954761;28;20058;-83
2022/04/08 11:51:20;;;;;;;13.48;1.40;;;9.20;99.90;;;;;;4972374;28;20058;-85
2022/04/08 11:53:53;;;;;;;5.43;0.87;;;9.90;99.90;;;;;;4987180;28;20493;-89
2022/04/08 11:56:37;;;;;;;10.05;1.10;;;10.20;99.90;;;;;;4991457;28;20046;-85
2022/04/08 11:59:08;;;;;;;4.95;0.82;;;9.90;99.90;;;;;;4990904;28;20058;-84
2022/04/08 12:01:52;;;;;;;4.25;0.40;;;9.80;99.90;;;;;;4975394;28;20056;-83
2022/04/08 12:04:20;;;;;;;5.75;1.00;;;10.80;99.90;;;;;;4954489;28;20172;-85
2022/04/08 12:06:52;;;;;;;5.93;0.85;;;10.30;99.90;;;;;;4970749;28;20406;-87
2022/04/08 12:09:20;;;;;;;5.05;0.77;;;10.80;99.90;;;;;;4971066;28;20530;-84
2022/04/08 12:11:47;;;;;;;5.88;0.77;;;10.40;99.90;;;;;;4954455;28;20045;-85
2022/04/08 12:14:20;;;;;;;3.92;1.10;;;10.30;99.90;;;;;;4954991;28;20055;-87
2022/04/08 12:16:48;;;;;;;6.05;1.02;;;10.30;99.90;;;;;;4971036;28;20050;-88
2022/04/08 12:19:18;;;;;;;5.38;1.10;;;10.30;99.90;;;;;;4948652;28;20510;-87
2022/04/08 12:21:48;;;;;;;4.93;0.90;;;10.70;99.90;;;;;;4991199;28;20065;-84
2022/04/08 12:24:15;;;;;;;4.30;0.80;;;11.10;99.90;;;;;;4993667;28;20066;-85
2022/04/08 12:26:42;;;;;;;5.25;1.15;;;11.20;99.90;;;;;;4994250;28;20101;-86
2022/04/08 12:29:19;;;;;;;5.50;0.80;;;10.40;99.90;;;;;;4975447;23;20051;-85
2022/04/08 12:32:07;;;;;;;5.25;0.98;;;10.60;99.90;;;;;;4951966;29;20545;-85
2022/04/08 12:34:47;;;;;;;5.10;0.95;;;10.40;99.90;;;;;;4952439;29;20090;-86
2022/04/08 12:37:12;;;;;;;7.65;1.33;;;10.20;99.90;;;;;;4971551;28;20097;-84
2022/04/08 12:39:46;;;;;;;8.68;1.35;;;11.60;99.90;;;;;;4973492;28;20410;-86
2022/04/08 12:42:13;;;;;;;6.03;1.10;;;11.70;99.90;;;;;;4973585;28;20494;-86
2022/04/08 12:44:39;;;;;;;9.95;1.10;;;11.20;99.90;;;;;;4955374;28;20129;-85
2022/04/08 12:47:04;;;;;;;7.97;1.17;;;11.60;99.90;;;;;;4972403;28;20126;-85
2022/04/08 12:49:30;;;;;;;6.15;1.70;;;11.10;99.90;;;;;;4955100;28;20070;-87
2022/04/08 12:51:56;;;;;;;6.60;1.85;;;11.00;99.90;;;;;;4956047;28;20548;-87
2022/04/08 12:54:23;;;;;;;4.80;1.13;;;11.10;99.90;;;;;;4977477;28;20051;-91
2022/04/08 12:57:14;;;;;;;9.05;1.40;;;11.10;99.90;;;;;;4942818;28;20054;-94
2022/04/08 12:59:39;;;;;;;;;;;10.40;99.90;;;;;;4939175;28;20086;-83
2022/04/08 13:02:22;;;;;;;8.73;1.27;;;11.00;99.90;;;;;;4972727;28;19972;-83
2022/04/08 13:04:54;;;;;;;7.38;1.38;;;10.50;99.90;;;;;;4975505;28;20053;-87
2022/04/08 13:07:20;;;;;;;11.90;1.33;;;11.10;99.90;;;;;;4974821;28;20070;-86
2022/04/08 13:09:45;;;;;;;7.35;1.00;;;10.30;99.90;;;;;;4974923;28;20054;-92
2022/04/08 13:12:11;;;;;;;7.38;1.20;;;10.60;99.90;;;;;;4973717;28;20070;-90
2022/04/08 13:14:40;;;;;;;6.85;1.58;;;10.00;99.90;;;;;;4973098;28;20049;-84
2022/04/08 13:17:05;;;;;;;9.70;1.23;;;10.00;99.90;;;;;;4972266;28;20057;-85
2022/04/08 13:19:34;;;;;;;9.30;0.90;;;9.80;99.90;;;;;;4971636;28;20051;-86
2022/04/08 13:22:08;;;;;;;8.25;1.02;;;9.70;99.90;;;;;;4971754;28;20043;-85
2022/04/08 13:24:37;;;;;;;7.55;1.10;;;9.80;99.90;;;;;;4972238;28;20501;-95
2022/04/08 13:27:03;;;;;;;7.05;1.00;;;10.10;99.90;;;;;;4959263;28;20046;-92
2022/04/08 13:29:36;;;;;;;3.80;1.00;;;10.10;99.90;;;;;;4975221;28;20094;-87
2022/04/08 13:32:02;;;;;;;7.82;1.10;;;10.60;99.90;;;;;;4956518;28;20536;-91
2022/04/08 13:34:29;;;;;;;6.75;0.80;;;10.10;99.90;;;;;;4958499;28;20058;-87
2022/04/08 13:37:13;;;;;;;8.70;1.80;;;10.10;99.90;;;;;;4908508;29;20124;-87
2022/04/08 13:39:47;;;;;;;7.68;1.20;;;10.30;99.90;;;;;;4918994;29;20107;-86
2022/04/08 13:42:18;;;;;;;7.55;1.27;;;10.40;99.90;;;;;;4922509;29;20051;-87
2022/04/08 13:44:48;;;;;;;6.97;1.00;;;11.20;99.90;;;;;;4947162;29;20079;-90
2022/04/08 13:47:14;;;;;;;4.32;0.90;;;10.60;99.90;;;;;;4948672;29;20106;-89
2022/04/08 13:50:18;;;;;;;9.85;0.95;;;11.40;99.90;;;;;;4997316;23;20082;-93
2022/04/08 13:52:46;;;;;;;9.05;1.05;;;10.90;99.90;;;;;;4925697;29;20171;-87
2022/04/08 13:55:42;;;;;;;7.80;1.00;;;11.50;99.90;;;;;;4922343;29;20052;-86